createdAt,value
2022-11-29T00:01:42.188Z,97410.19
2022-11-29T00:04:10.796Z,97388.72
2022-11-29T00:06:39.492Z,97398.66
2022-11-29T00:09:12.708Z,97384.97
2022-11-29T00:11:59.853Z,97386.59
2022-11-29T00:14:29.120Z,97387.66
2022-11-29T00:17:02.372Z,97389.81
2022-11-29T00:19:31.640Z,97383.38
2022-11-29T00:22:00.099Z,97361.66
2022-11-29T00:24:31.690Z,97374.25
2022-11-29T00:27:00.381Z,97381.22
2022-11-29T00:29:29.255Z,97372.91
2022-11-29T00:31:57.289Z,97369.69
2022-11-29T00:34:25.608Z,97380.41
2022-11-29T00:36:53.762Z,97367.00
2022-11-29T00:39:21.972Z,97365.94
2022-11-29T00:41:51.578Z,97393.31
2022-11-29T00:44:20.746Z,97380.44
2022-11-29T00:46:49.861Z,97359.78
2022-11-29T00:49:18.397Z,97378.00
2022-11-29T00:51:46.621Z,97395.19
2022-11-29T00:54:14.740Z,97390.06
2022-11-29T00:56:43.091Z,97385.75
2022-11-29T00:59:12.598Z,97380.41
2022-11-29T01:01:40.746Z,97368.34
2022-11-29T01:04:08.947Z,97374.78
2022-11-29T01:06:37.073Z,97358.44
2022-11-29T01:09:05.532Z,97371.50
2022-11-29T01:11:33.954Z,97378.25
2022-11-29T01:14:04.483Z,97386.03
2022-11-29T01:16:34.225Z,97382.25
2022-11-29T01:19:02.696Z,97374.19
2022-11-29T01:21:31.346Z,97385.50
2022-11-29T01:24:00.811Z,97379.03
2022-11-29T01:26:30.965Z,97388.66
2022-11-29T01:28:59.907Z,97365.94
2022-11-29T01:31:30.619Z,97383.63
2022-11-29T01:34:02.177Z,97373.16
2022-11-29T01:36:30.564Z,97373.44
2022-11-29T01:39:00.708Z,97383.88
2022-11-29T01:41:32.042Z,97373.16
2022-11-29T01:44:04.007Z,97366.47
2022-11-29T01:46:34.813Z,97387.94
2022-11-29T01:49:09.583Z,97363.53
2022-11-29T01:51:40.598Z,97358.72
2022-11-29T01:54:11.270Z,97364.84
2022-11-29T01:56:40.123Z,97355.72
2022-11-29T01:59:12.502Z,97362.47
2022-11-29T02:01:40.715Z,97364.25
2022-11-29T02:04:10.524Z,97343.13
2022-11-29T02:06:40.374Z,97352.50
2022-11-29T02:09:19.014Z,97367.44
2022-11-29T02:12:07.267Z,97366.38
2022-11-29T02:14:48.528Z,97368.19
2022-11-29T02:17:25.928Z,97371.97
2022-11-29T02:20:21.234Z,97356.66
2022-11-29T02:22:57.628Z,97364.19
2022-11-29T02:25:40.340Z,97343.31
2022-11-29T02:28:56.428Z,97361.47
2022-11-29T02:31:52.053Z,97356.66
2022-11-29T02:34:39.250Z,97350.19
2022-11-29T02:37:29.854Z,97369.34
2022-11-29T02:40:27.025Z,97374.47
2022-11-29T02:43:18.175Z,97379.75
2022-11-29T02:45:54.892Z,97375.00
2022-11-29T02:48:42.729Z,97377.44
2022-11-29T02:51:19.233Z,97386.50
2022-11-29T02:53:56.999Z,97366.66
2022-11-29T02:56:30.686Z,97354.13
2022-11-29T02:59:04.741Z,97349.00
2022-11-29T03:01:41.272Z,97391.41
2022-11-29T03:04:19.729Z,97363.47
2022-11-29T03:06:58.719Z,97383.06
2022-11-29T03:09:37.966Z,97384.16
2022-11-29T03:12:18.857Z,97375.59
2022-11-29T03:14:58.180Z,97371.81
2022-11-29T03:17:38.565Z,97395.44
2022-11-29T03:20:23.852Z,97367.28
2022-11-29T03:23:11.695Z,97394.09
2022-11-29T03:25:45.567Z,97387.38
2022-11-29T03:28:19.984Z,97368.34
2022-11-29T03:30:54.479Z,97399.19
2022-11-29T03:33:29.880Z,97403.50
2022-11-29T03:36:06.422Z,97367.28
2022-11-29T03:38:41.979Z,97404.25
2022-11-29T03:41:22.029Z,97395.16
2022-11-29T03:43:58.717Z,97390.63
2022-11-29T03:46:33.978Z,97368.34
2022-11-29T03:49:05.657Z,97408.06
2022-11-29T03:51:48.295Z,97404.81
2022-11-29T03:54:24.081Z,97400.00
2022-11-29T03:56:52.970Z,97400.28
2022-11-29T03:59:36.685Z,97413.41
2022-11-29T04:02:31.384Z,97402.97
2022-11-29T04:05:30.205Z,97410.22
2022-11-29T04:08:23.163Z,97416.09
2022-11-29T04:11:20.524Z,97395.97
2022-11-29T04:14:14.385Z,97418.25
2022-11-29T04:17:08.573Z,97385.53
2022-11-29T04:20:13.102Z,97404.84
2022-11-29T04:23:03.384Z,97403.78
2022-11-29T04:26:02.884Z,97405.66
2022-11-29T04:29:04.850Z,97392.22
2022-11-29T04:31:42.343Z,97404.84
2022-11-29T04:34:29.473Z,97408.06
2022-11-29T04:37:20.102Z,97397.31
2022-11-29T04:40:25.841Z,97382.84
2022-11-29T04:43:18.994Z,97395.97
2022-11-29T04:46:27.945Z,97401.34
2022-11-29T04:49:20.783Z,97412.63
2022-11-29T04:52:20.495Z,97416.91
2022-11-29T04:54:56.021Z,97409.13
2022-11-29T04:57:32.011Z,97416.63
2022-11-29T05:00:08.348Z,97422.81
2022-11-29T05:02:42.570Z,97416.13
2022-11-29T05:05:25.288Z,97411.00
2022-11-29T05:08:10.255Z,97414.50
2022-11-29T05:10:46.435Z,97414.22
2022-11-29T05:13:21.028Z,97410.22
2022-11-29T05:16:08.673Z,97421.47
2022-11-29T05:18:58.898Z,97423.91
2022-11-29T05:21:39.371Z,97438.66
2022-11-29T05:24:20.909Z,97437.31
2022-11-29T05:26:56.656Z,97429.78
2022-11-29T05:29:34.696Z,97431.94
2022-11-29T05:32:23.308Z,97433.28
2022-11-29T05:35:08.634Z,97426.56
2022-11-29T05:37:47.050Z,97430.06
2022-11-29T05:40:41.077Z,97422.81
2022-11-29T05:43:21.974Z,97453.41
2022-11-29T05:45:57.019Z,97420.66
2022-11-29T05:48:31.230Z,97427.38
2022-11-29T05:51:11.560Z,97445.34
2022-11-29T05:53:51.535Z,97448.28
2022-11-29T05:56:27.696Z,97443.47
2022-11-29T05:59:00.561Z,97444.03
2022-11-29T06:01:33.126Z,97451.78
2022-11-29T06:04:11.784Z,97445.88
2022-11-29T06:06:49.593Z,97443.16
2022-11-29T06:09:27.683Z,97459.59
2022-11-29T06:12:02.611Z,97451.81
2022-11-29T06:14:53.313Z,97441.88
2022-11-29T06:17:48.944Z,97439.16
2022-11-29T06:20:50.316Z,97461.41
2022-11-29T06:23:48.855Z,97476.22
2022-11-29T06:26:36.313Z,97444.03
2022-11-29T06:29:25.458Z,97474.84
2022-11-29T06:32:02.636Z,97462.50
2022-11-29T06:34:45.794Z,97459.03
2022-11-29T06:37:18.903Z,97466.84
2022-11-29T06:39:47.485Z,97466.00
2022-11-29T06:42:17.658Z,97482.66
2022-11-29T06:44:46.833Z,97460.69
2022-11-29T06:47:24.875Z,97489.94
2022-11-29T06:49:59.773Z,97495.84
2022-11-29T06:52:41.304Z,97492.31
2022-11-29T06:55:18.548Z,97489.34
2022-11-29T06:58:05.053Z,97486.13
2022-11-29T07:00:44.026Z,97501.47
2022-11-29T07:03:38.904Z,97509.53
2022-11-29T07:06:16.118Z,97507.38
2022-11-29T07:08:45.424Z,97494.50
2022-11-29T07:11:16.242Z,97521.59
2022-11-29T07:13:47.174Z,97506.03
2022-11-29T07:16:27.067Z,97500.66
2022-11-29T07:19:12.023Z,97518.66
2022-11-29T07:21:50.518Z,97508.16
2022-11-29T07:24:42.504Z,97524.56
2022-11-29T07:27:36.243Z,97520.00
2022-11-29T07:30:15.590Z,97525.41
2022-11-29T07:33:00.464Z,97517.59
2022-11-29T07:35:40.276Z,97517.31
2022-11-29T07:38:20.618Z,97515.72
2022-11-29T07:40:57.209Z,97502.53
2022-11-29T07:43:42.644Z,97502.00
2022-11-29T07:46:12.527Z,97518.63
2022-11-29T07:48:43.737Z,97519.47
2022-11-29T07:51:12.639Z,97525.09
2022-11-29T07:53:44.147Z,97499.28
2022-11-29T07:56:12.890Z,97530.47
2022-11-29T07:58:42.175Z,97524.81
2022-11-29T08:01:12.113Z,97493.66
2022-11-29T08:03:42.528Z,97560.06
2022-11-29T08:06:10.922Z,97495.84
2022-11-29T08:08:43.700Z,97538.81
2022-11-29T08:11:29.625Z,97539.59
2022-11-29T08:14:02.345Z,97557.97
2022-11-29T08:16:54.745Z,97559.44
2022-11-29T08:19:46.123Z,97523.75
2022-11-29T08:25:26.300Z,97567.03
2022-11-29T08:28:11.210Z,97524.25
2022-11-29T08:30:47.286Z,97536.59
2022-11-29T08:33:17.749Z,97555.97
2022-11-29T08:35:46.704Z,97541.97
2022-11-29T08:38:18.103Z,97557.00
2022-11-29T08:40:47.776Z,97563.78
2022-11-29T08:43:18.839Z,97531.72
2022-11-29T08:45:47.760Z,97572.25
2022-11-29T08:48:20.613Z,97569.94
2022-11-29T08:50:52.050Z,97554.50
2022-11-29T08:53:39.566Z,97520.94
2022-11-29T08:56:41.631Z,97523.44
2022-11-29T08:58:57.868Z,97570.69
2022-11-29T09:01:27.309Z,97582.41
2022-11-29T09:04:03.603Z,97556.91
2022-11-29T09:06:33.922Z,97579.69
2022-11-29T09:09:03.741Z,97578.59
2022-11-29T09:11:35.086Z,97578.41
2022-11-29T09:14:06.026Z,97586.34
2022-11-29T09:16:37.621Z,97568.03
2022-11-29T09:19:09.369Z,97577.44
2022-11-29T09:21:38.056Z,97595.03
2022-11-29T09:24:08.638Z,97584.31
2022-11-29T09:26:38.448Z,97594.81
2022-11-29T09:29:10.828Z,97592.06
2022-11-29T09:31:39.649Z,97574.25
2022-11-29T09:34:09.671Z,97593.78
2022-11-29T09:36:40.874Z,97577.75
2022-11-29T09:39:10.073Z,97598.31
2022-11-29T09:42:03.217Z,97573.13
2022-11-29T09:44:41.886Z,97574.78
2022-11-29T09:47:29.718Z,97598.44
2022-11-29T09:50:14.783Z,97598.94
2022-11-29T09:53:06.067Z,97602.09
2022-11-29T09:55:58.419Z,97598.38
2022-11-29T09:58:41.627Z,97582.50
2022-11-29T10:01:22.006Z,97600.59
2022-11-29T10:06:42.129Z,97598.50
2022-11-29T10:09:23.869Z,97578.94
2022-11-29T10:12:03.042Z,97610.44
2022-11-29T10:14:37.667Z,97556.72
2022-11-29T10:20:52.155Z,97554.50
2022-11-29T10:23:30.922Z,97616.34
2022-11-29T10:26:03.424Z,97576.97
2022-11-29T10:28:35.197Z,97591.56
2022-11-29T10:31:31.462Z,97562.63
2022-11-29T10:34:02.442Z,97555.84
2022-11-29T10:36:36.572Z,97606.13
2022-11-29T10:39:15.274Z,97582.50
2022-11-29T11:12:24.740Z,97593.59
2022-11-29T11:14:53.623Z,97575.91
2022-11-29T11:17:26.495Z,97601.84
2022-11-29T11:20:01.043Z,97601.59
2022-11-29T11:22:31.391Z,97581.38
2022-11-29T11:25:03.921Z,97595.00
2022-11-29T11:27:39.840Z,97590.09
2022-11-29T11:30:25.291Z,97613.88
2022-11-29T11:33:09.007Z,97611.66
2022-11-29T11:35:39.259Z,97604.09
2022-11-29T11:38:16.254Z,97615.91
2022-11-29T11:40:44.972Z,97612.44
2022-11-29T11:43:22.049Z,97618.19
2022-11-29T11:45:54.972Z,97609.25
2022-11-29T11:48:24.182Z,97589.69
2022-11-29T11:50:56.588Z,97589.69
2022-11-29T11:53:30.007Z,97602.16
2022-11-29T11:56:02.041Z,97596.53
2022-11-29T11:58:36.749Z,97622.88
2022-11-29T12:01:16.788Z,97625.56
2022-11-29T12:03:56.329Z,97598.19
2022-11-29T12:06:33.604Z,97609.28
2022-11-29T12:09:08.786Z,97605.59
2022-11-29T12:11:44.784Z,97620.72
2022-11-29T12:14:25.327Z,97617.69
2022-11-29T12:17:03.441Z,97623.38
2022-11-29T12:19:41.064Z,97619.19
2022-11-29T12:22:16.223Z,97623.94
2022-11-29T12:24:57.273Z,97623.97
2022-11-29T12:27:28.757Z,97626.19
2022-11-29T12:29:58.912Z,97632.03
2022-11-29T12:32:50.971Z,97622.78
2022-11-29T12:35:40.955Z,97620.78
2022-11-29T12:38:23.471Z,97623.53
2022-11-29T12:41:04.389Z,97615.81
2022-11-29T12:43:48.994Z,97624.66
2022-11-29T12:46:26.119Z,97624.69
2022-11-29T12:49:01.905Z,97624.19
2022-11-29T12:51:40.014Z,97632.84
2022-11-29T12:54:21.640Z,97627.00
2022-11-29T12:56:57.810Z,97620.84
2022-11-29T12:59:38.131Z,97630.53
2022-11-29T13:02:23.995Z,97638.56
2022-11-29T13:05:08.335Z,97611.63
2022-11-29T13:07:45.165Z,97647.94
2022-11-29T13:10:35.873Z,97636.53
2022-11-29T13:13:18.013Z,97641.06
2022-11-29T13:15:51.943Z,97639.56
2022-11-29T13:18:27.426Z,97629.66
2022-11-29T13:21:02.751Z,97638.25
2022-11-29T13:24:07.189Z,97639.19
2022-11-29T13:26:27.450Z,97640.63
2022-11-29T13:28:56.472Z,97647.69
2022-11-29T13:31:26.337Z,97633.72
2022-11-29T13:34:06.027Z,97646.78
2022-11-29T13:36:49.150Z,97651.34
2022-11-29T13:39:31.049Z,97649.91
2022-11-29T13:42:07.749Z,97655.47
2022-11-29T13:44:43.142Z,97649.81
2022-11-29T13:47:14.020Z,97658.38
2022-11-29T13:49:55.212Z,97665.69
2022-11-29T13:52:44.170Z,97660.25
2022-11-29T13:55:34.192Z,97670.94
2022-11-29T13:58:16.829Z,97658.28
2022-11-29T14:00:51.774Z,97664.72
2022-11-29T14:03:36.232Z,97667.47
2022-11-29T14:06:21.245Z,97667.63
2022-11-29T14:09:32.138Z,97665.88
2022-11-29T14:12:05.781Z,97670.69
2022-11-29T14:14:41.133Z,97678.75
2022-11-29T14:17:35.219Z,97664.19
2022-11-29T14:20:52.209Z,97672.66
2022-11-29T14:23:43.502Z,97674.19
2022-11-29T14:26:31.181Z,97687.00
2022-11-29T14:29:00.669Z,97678.44
2022-11-29T14:31:48.445Z,97676.00
2022-11-29T14:34:28.058Z,97684.03
2022-11-29T14:37:04.815Z,97681.94
2022-11-29T14:39:43.647Z,97682.22
2022-11-29T14:42:17.141Z,97679.84
2022-11-29T14:44:49.016Z,97666.31
2022-11-29T14:47:24.761Z,97667.19
2022-11-29T14:49:55.270Z,97674.16
2022-11-29T15:31:50.659Z,97704.84
2022-11-29T15:34:31.065Z,97707.00
2022-11-29T15:36:59.809Z,97708.72
2022-11-29T15:39:31.468Z,97705.28
2022-11-29T15:42:04.630Z,97713.81
2022-11-29T15:44:35.278Z,97721.59
2022-11-29T15:47:16.851Z,97719.25
2022-11-29T15:49:46.270Z,97716.06
2022-11-29T15:52:30.939Z,97714.72
2022-11-29T15:55:02.299Z,97719.84
2022-11-29T15:57:36.115Z,97717.63
2022-11-29T16:00:09.128Z,97729.22
2022-11-29T16:02:41.048Z,97728.19
2022-11-29T16:05:17.422Z,97727.09
2022-11-29T16:07:47.303Z,97724.13
2022-11-29T16:10:19.660Z,97733.00
2022-11-29T16:12:56.064Z,97730.81
2022-11-29T16:15:30.214Z,97727.56
2022-11-29T16:18:04.803Z,97739.41
2022-11-29T16:20:34.592Z,97734.88
2022-11-29T16:23:12.433Z,97718.28
2022-11-29T16:26:00.205Z,97744.06
2022-11-29T16:28:34.026Z,97759.66
2022-11-29T16:31:02.221Z,97731.72
2022-11-29T16:33:30.400Z,97745.41
2022-11-29T16:36:08.052Z,97741.06
2022-11-29T16:38:36.061Z,97751.53
2022-11-29T16:41:07.324Z,97760.75
2022-11-29T16:43:53.954Z,97755.63
2022-11-29T16:46:33.738Z,97745.69
2022-11-29T16:49:04.644Z,97748.41
2022-11-29T16:51:43.878Z,97750.31
2022-11-29T16:54:24.402Z,97763.25
2022-11-29T16:56:54.167Z,97758.94
2022-11-29T16:59:27.892Z,97748.13
2022-11-29T17:01:56.789Z,97761.50
2022-11-29T17:04:25.712Z,97758.03
2022-11-29T17:06:55.985Z,97758.88
2022-11-29T17:09:26.270Z,97761.34
2022-11-29T17:11:55.076Z,97766.41
2022-11-29T17:14:23.262Z,97757.56
2022-11-29T17:16:52.145Z,97761.59
2022-11-29T17:19:25.584Z,97761.88
2022-11-29T17:21:55.281Z,97761.34
2022-11-29T17:24:24.617Z,97760.00
2022-11-29T17:26:52.971Z,97765.91
2022-11-29T17:29:21.185Z,97761.84
2022-11-29T17:31:50.701Z,97768.06
2022-11-29T17:34:19.198Z,97759.09
2022-11-29T17:36:47.657Z,97768.06
2022-11-29T17:39:20.225Z,97768.84
2022-11-29T17:41:48.613Z,97772.06
2022-11-29T17:44:16.891Z,97773.59
2022-11-29T17:46:45.060Z,97779.03
2022-11-29T17:49:13.342Z,97787.41
2022-11-29T17:51:57.199Z,97776.91
2022-11-29T17:54:27.058Z,97788.75
2022-11-29T17:56:55.173Z,97782.00
2022-11-29T17:59:23.387Z,97784.94
2022-11-29T18:01:51.687Z,97792.53
2022-11-29T18:04:19.844Z,97784.94
2022-11-29T18:06:50.476Z,97797.38
2022-11-29T18:09:20.029Z,97792.56
2022-11-29T18:11:50.913Z,97793.31
2022-11-29T18:14:21.309Z,97789.06
2022-11-29T18:16:50.109Z,97800.91
2022-11-29T18:19:20.830Z,97809.28
2022-11-29T18:21:50.713Z,97791.53
2022-11-29T18:24:19.150Z,97798.72
2022-11-29T18:26:47.838Z,97808.47
2022-11-29T18:29:17.527Z,97790.19
2022-11-29T18:31:46.893Z,97787.75
2022-11-29T18:34:16.239Z,97802.22
2022-11-29T18:36:46.085Z,97807.13
2022-11-29T18:39:16.540Z,97794.19
2022-11-29T18:41:46.905Z,97817.34
2022-11-29T18:44:18.201Z,97788.00
2022-11-29T18:46:46.767Z,97816.53
2022-11-29T18:49:16.706Z,97803.59
2022-11-29T18:51:46.329Z,97795.81
2022-11-29T18:54:15.375Z,97798.22
2022-11-29T18:56:44.220Z,97820.28
2022-11-29T18:59:14.861Z,97809.56
2022-11-29T19:01:45.671Z,97820.31
2022-11-29T19:04:15.484Z,97819.25
2022-11-29T19:06:44.359Z,97811.72
2022-11-29T19:09:15.078Z,97823.28
2022-11-29T19:11:43.383Z,97824.66
2022-11-29T19:14:13.600Z,97818.19
2022-11-29T19:16:43.346Z,97825.97
2022-11-29T19:19:13.546Z,97809.28
2022-11-29T19:21:42.413Z,97835.41
2022-11-29T19:24:17.908Z,97839.72
2022-11-29T19:26:48.007Z,97825.47
2022-11-29T19:29:17.576Z,97828.69
2022-11-29T19:31:45.872Z,97823.00
2022-11-29T19:34:15.714Z,97820.56
2022-11-29T19:36:44.986Z,97844.81
2022-11-29T19:39:15.902Z,97850.75
2022-11-29T19:41:45.551Z,97851.00
2022-11-29T19:44:14.340Z,97839.97
2022-11-29T19:46:44.489Z,97831.09
2022-11-29T19:49:13.299Z,97845.34
2022-11-29T19:51:42.912Z,97837.56
2022-11-29T19:54:12.094Z,97840.25
2022-11-29T19:56:40.998Z,97835.41
2022-11-29T19:59:09.882Z,97845.09
2022-11-29T20:01:41.392Z,97833.53
2022-11-29T20:04:11.880Z,97840.22
2022-11-29T20:06:43.328Z,97818.44
2022-11-29T20:09:11.997Z,97817.63
2022-11-29T20:11:40.273Z,97845.91
2022-11-29T20:14:09.354Z,97848.88
2022-11-29T20:16:39.297Z,97845.59
2022-11-29T20:19:11.031Z,97850.44
2022-11-29T20:21:44.839Z,97859.59
2022-11-29T20:24:14.503Z,97853.38
2022-11-29T20:26:44.539Z,97851.22
2022-11-29T20:29:13.183Z,97851.22
2022-11-29T20:31:49.087Z,97865.47
2022-11-29T20:34:19.592Z,97867.09
2022-11-29T20:37:09.475Z,97877.06
2022-11-29T20:39:47.267Z,97872.53
2022-11-29T20:42:41.533Z,97866.53
2022-11-29T20:45:11.425Z,97852.00
2022-11-29T20:47:46.552Z,97873.81
2022-11-29T20:50:21.798Z,97877.84
2022-11-29T20:53:04.707Z,97885.09
2022-11-29T20:55:32.788Z,97881.38
2022-11-29T20:58:00.908Z,97879.13
2022-11-29T21:00:29.017Z,97869.53
2022-11-29T21:02:57.052Z,97876.50
2022-11-29T21:05:25.371Z,97872.47
2022-11-29T21:07:55.835Z,97877.59
2022-11-29T21:10:24.189Z,97867.38
2022-11-29T21:12:53.296Z,97873.88
2022-11-29T21:15:22.461Z,97869.03
2022-11-29T21:17:51.109Z,97859.91
2022-11-29T21:20:22.096Z,97854.78
2022-11-29T21:22:59.897Z,97854.50
2022-11-29T21:25:39.149Z,97872.53
2022-11-29T21:28:12.421Z,97834.81
2022-11-29T21:30:41.373Z,97865.75
2022-11-29T21:33:10.721Z,97863.63
2022-11-29T21:35:40.633Z,97865.75
2022-11-29T21:38:14.660Z,97867.09
2022-11-29T21:40:42.912Z,97862.22
2022-11-29T21:43:10.967Z,97864.66
2022-11-29T21:45:40.396Z,97861.66
2022-11-29T21:48:28.850Z,97869.22
2022-11-29T21:50:59.681Z,97870.81
2022-11-29T21:53:29.428Z,97886.69
2022-11-29T21:55:58.474Z,97898.50
2022-11-29T21:58:27.168Z,97903.88
2022-11-29T22:00:55.400Z,97893.16
2022-11-29T22:03:23.972Z,97900.97
2022-11-29T22:05:52.232Z,97883.75
2022-11-29T22:08:20.466Z,97904.47
2022-11-29T22:10:50.147Z,97882.16
2022-11-29T22:13:18.178Z,97881.09
2022-11-29T22:15:46.606Z,97875.47
2022-11-29T22:18:14.823Z,97888.88
2022-11-29T22:20:47.391Z,97893.47
2022-11-29T22:23:15.566Z,97861.66
2022-11-29T22:25:44.155Z,97881.06
2022-11-29T22:28:14.683Z,97876.38
2022-11-29T22:30:43.144Z,97886.38
2022-11-29T22:33:13.412Z,97900.66
2022-11-29T22:35:44.523Z,97887.47
2022-11-29T22:38:13.218Z,97859.16
2022-11-29T22:40:41.791Z,97902.53
2022-11-29T22:43:10.127Z,97897.94
2022-11-29T22:45:40.077Z,97899.00
2022-11-29T22:48:08.843Z,97886.69
2022-11-29T22:50:37.167Z,97908.47
2022-11-29T22:53:05.669Z,97886.06
2022-11-29T22:55:33.914Z,97899.81
2022-11-29T22:58:02.232Z,97883.31
2022-11-29T23:00:31.215Z,97909.47
2022-11-29T23:03:00.919Z,97909.03
2022-11-29T23:05:32.455Z,97919.84
2022-11-29T23:08:01.317Z,97908.47
2022-11-29T23:10:29.778Z,97888.81
2022-11-29T23:12:58.492Z,97913.13
2022-11-29T23:15:26.743Z,97930.31
2022-11-29T23:17:55.198Z,97911.16
2022-11-29T23:20:24.815Z,97931.00
2022-11-29T23:22:53.037Z,97916.66
2022-11-29T23:25:23.946Z,97893.63
2022-11-29T23:27:54.137Z,97909.78
2022-11-29T23:30:22.961Z,97885.81
2022-11-29T23:32:51.498Z,97925.75
2022-11-29T23:35:20.031Z,97919.03
2022-11-29T23:37:49.822Z,97926.56
2022-11-29T23:40:18.806Z,97910.38
2022-11-29T23:42:52.325Z,97914.16
2022-11-29T23:45:20.768Z,97905.78
2022-11-29T23:47:49.029Z,97916.06
2022-11-29T23:50:17.452Z,97915.22
2022-11-29T23:52:45.663Z,97885.28
2022-11-29T23:55:16.717Z,97914.94
2022-11-29T23:57:44.813Z,97898.72
